Time;durP1;ratioP1;P1;durP2;ratioP2;P2;SDS_P1;SDS_P2;PMS_P1;PMS_P2;Temp;Humidity;BMP_temperature;BMP_pressure;BME280_temperature;BME280_humidity;BME280_pressure;Samples;Min_cycle;Max_cycle;Signal;HPM_P1;HPM_P2
2023/01/23 00:01:00;;;;;;;7.70;4.40;;;;;;;;;;5092781;28;20943;-80
2023/01/23 00:03:27;;;;;;;6.17;5.07;;;;;;;;;;5091955;28;20480;-79
2023/01/23 00:05:57;;;;;;;4.70;3.17;;;;;;;;;;5088201;28;20932;-79
2023/01/23 00:08:25;;;;;;;4.73;3.37;;;;;;;;;;5092316;28;20451;-79
2023/01/23 00:10:52;;;;;;;7.50;5.23;;;;;;;;;;5092727;28;20454;-80
2023/01/23 00:13:19;;;;;;;7.00;3.67;;;;;;;;;;5092200;28;20513;-80
2023/01/23 00:15:46;;;;;;;6.87;3.70;;;;;;;;;;5082758;28;20441;-79
2023/01/23 00:18:15;;;;;;;6.40;5.27;;;;;;;;;;5092174;28;20454;-79
2023/01/23 00:20:42;;;;;;;5.10;4.23;;;;;;;;;;5088974;28;20449;-80
2023/01/23 00:23:09;;;;;;;6.77;4.37;;;;;;;;;;5092843;28;20491;-80
2023/01/23 00:25:37;;;;;;;7.13;4.40;;;;;;;;;;5092248;28;20463;-79
2023/01/23 00:28:04;;;;;;;4.60;3.53;;;;;;;;;;5092449;28;20514;-79
2023/01/23 00:30:31;;;;;;;5.97;4.00;;;;;;;;;;5087696;28;20451;-79
2023/01/23 00:32:59;;;;;;;6.70;4.00;;;;;;;;;;5083852;28;20460;-79
2023/01/23 00:35:27;;;;;;;5.93;4.10;;;;;;;;;;5091755;28;20548;-79
2023/01/23 00:37:54;;;;;;;7.27;4.53;;;;;;;;;;5091884;28;20449;-79
2023/01/23 00:40:21;;;;;;;8.60;5.00;;;;;;;;;;5091983;28;20459;-79
2023/01/23 00:42:49;;;;;;;7.17;4.23;;;;;;;;;;5092177;28;20462;-79
2023/01/23 00:45:16;;;;;;;3.97;3.57;;;;;;;;;;5091860;28;20532;-79
2023/01/23 00:47:43;;;;;;;7.83;4.27;;;;;;;;;;5091886;28;20455;-80
2023/01/23 00:50:11;;;;;;;4.60;3.30;;;;;;;;;;5092284;28;20447;-79
2023/01/23 00:52:39;;;;;;;7.53;4.63;;;;;;;;;;5091701;28;20451;-79
2023/01/23 00:55:07;;;;;;;7.00;3.30;;;;;;;;;;5092148;28;20449;-79
2023/01/23 00:57:34;;;;;;;4.53;3.33;;;;;;;;;;5090970;28;20450;-79
2023/01/23 01:00:01;;;;;;;5.70;4.20;;;;;;;;;;5092011;28;20475;-79
2023/01/23 01:02:28;;;;;;;4.60;3.10;;;;;;;;;;5090913;28;20456;-79
2023/01/23 01:04:55;;;;;;;4.53;3.70;;;;;;;;;;5092077;28;20482;-78
2023/01/23 01:07:23;;;;;;;4.53;3.27;;;;;;;;;;5088241;28;20449;-78
2023/01/23 01:09:51;;;;;;;9.63;4.43;;;;;;;;;;5091753;28;20447;-78
2023/01/23 01:12:19;;;;;;;7.93;3.93;;;;;;;;;;5091094;28;20459;-78
2023/01/23 01:14:46;;;;;;;5.83;2.83;;;;;;;;;;5092006;28;20452;-79
2023/01/23 01:17:13;;;;;;;8.87;4.67;;;;;;;;;;5091094;28;20451;-78
2023/01/23 01:19:40;;;;;;;6.97;4.43;;;;;;;;;;5091093;28;20455;-78
2023/01/23 01:22:07;;;;;;;8.60;3.90;;;;;;;;;;5105399;28;20497;-79
2023/01/23 01:24:34;;;;;;;6.03;3.70;;;;;;;;;;5088333;28;20593;-78
2023/01/23 01:27:03;;;;;;;3.67;3.20;;;;;;;;;;5087036;28;20459;-78
2023/01/23 01:29:30;;;;;;;7.50;3.53;;;;;;;;;;5090785;28;20448;-79
2023/01/23 01:31:57;;;;;;;4.43;4.00;;;;;;;;;;5090769;28;20467;-78
2023/01/23 01:34:24;;;;;;;7.53;5.00;;;;;;;;;;5090488;28;20459;-78
2023/01/23 01:36:52;;;;;;;8.37;3.93;;;;;;;;;;5090866;28;20453;-79
2023/01/23 01:39:19;;;;;;;6.50;4.43;;;;;;;;;;5090773;28;20845;-78
2023/01/23 01:41:46;;;;;;;5.40;4.03;;;;;;;;;;5091070;28;20470;-79
2023/01/23 01:44:18;;;;;;;4.00;3.43;;;;;;;;;;5090858;28;20495;-78
2023/01/23 01:46:45;;;;;;;8.70;4.27;;;;;;;;;;5090647;28;20446;-78
2023/01/23 01:49:15;;;;;;;6.10;3.23;;;;;;;;;;5090819;28;20485;-79
2023/01/23 01:51:44;;;;;;;4.67;3.50;;;;;;;;;;5090413;28;20448;-80
2023/01/23 01:54:15;;;;;;;4.20;3.30;;;;;;;;;;5091048;28;20445;-79
2023/01/23 01:56:44;;;;;;;12.63;4.70;;;;;;;;;;5089668;28;20783;-80
2023/01/23 01:59:12;;;;;;;3.13;2.83;;;;;;;;;;5090762;28;20456;-78
2023/01/23 02:01:41;;;;;;;5.20;4.00;;;;;;;;;;5089604;28;20458;-79
2023/01/23 02:04:09;;;;;;;4.20;3.17;;;;;;;;;;5090428;28;20478;-79
2023/01/23 02:06:36;;;;;;;6.53;3.67;;;;;;;;;;5089935;28;20444;-79
2023/01/23 02:09:06;;;;;;;4.37;3.03;;;;;;;;;;5090711;28;20459;-80
2023/01/23 02:11:33;;;;;;;6.40;4.63;;;;;;;;;;5089961;28;20456;-79
2023/01/23 02:14:00;;;;;;;6.83;4.20;;;;;;;;;;5090121;28;20802;-79
2023/01/23 02:16:28;;;;;;;6.90;2.93;;;;;;;;;;5090056;28;20451;-76
2023/01/23 02:19:00;;;;;;;7.63;4.40;;;;;;;;;;5090132;28;20464;-78
2023/01/23 02:21:27;;;;;;;3.80;2.90;;;;;;;;;;5090155;28;20492;-79
2023/01/23 02:24:10;;;;;;;5.50;4.10;;;;;;;;;;5090308;28;20480;-78
2023/01/23 02:26:40;;;;;;;9.37;4.20;;;;;;;;;;5089592;28;20752;-79
2023/01/23 02:29:07;;;;;;;7.87;3.40;;;;;;;;;;5090589;28;20872;-79
2023/01/23 02:31:36;;;;;;;6.90;3.70;;;;;;;;;;5090098;28;20449;-79
2023/01/23 02:34:03;;;;;;;8.43;3.50;;;;;;;;;;5078734;28;20456;-77
2023/01/23 02:36:31;;;;;;;5.60;3.67;;;;;;;;;;5089464;28;20448;-78
2023/01/23 02:39:06;;;;;;;4.50;4.10;;;;;;;;;;5082506;28;20434;-78
2023/01/23 02:41:35;;;;;;;8.50;4.63;;;;;;;;;;5088559;28;20448;-79
2023/01/23 02:44:05;;;;;;;6.27;4.03;;;;;;;;;;5090668;28;20838;-79
2023/01/23 02:46:32;;;;;;;4.50;3.00;;;;;;;;;;5089455;28;20463;-79
2023/01/23 02:48:59;;;;;;;8.10;5.07;;;;;;;;;;5090485;28;20442;-78
2023/01/23 02:51:26;;;;;;;6.70;4.17;;;;;;;;;;5089685;28;20438;-79
2023/01/23 02:53:53;;;;;;;6.37;3.50;;;;;;;;;;5090284;28;20926;-79
2023/01/23 02:56:20;;;;;;;4.37;3.33;;;;;;;;;;5090179;28;20439;-79
2023/01/23 03:01:34;;;;;;;5.30;3.73;;;;;;;;;;5086307;28;20510;-78
2023/01/23 03:04:03;;;;;;;5.13;3.00;;;;;;;;;;5082989;28;20482;-78
2023/01/23 03:06:34;;;;;;;11.67;4.73;;;;;;;;;;5075992;28;20448;-78
2023/01/23 03:09:02;;;;;;;6.53;3.73;;;;;;;;;;5090286;28;20438;-79
2023/01/23 03:11:29;;;;;;;7.30;5.30;;;;;;;;;;5089599;28;20442;-78
2023/01/23 03:13:56;;;;;;;10.93;5.50;;;;;;;;;;5090032;28;20437;-78
2023/01/23 03:16:23;;;;;;;6.67;5.70;;;;;;;;;;5089596;28;20441;-78
2023/01/23 03:18:51;;;;;;;8.20;5.40;;;;;;;;;;5089845;28;20450;-78
2023/01/23 03:21:18;;;;;;;5.90;4.20;;;;;;;;;;5089796;28;20435;-79
2023/01/23 03:23:47;;;;;;;5.17;3.90;;;;;;;;;;5090339;28;20450;-79
2023/01/23 03:26:14;;;;;;;11.67;5.60;;;;;;;;;;5092357;28;20439;-79
2023/01/23 03:31:26;;;;;;;5.90;4.00;;;;;;;;;;5092195;28;20420;-78
2023/01/23 03:33:54;;;;;;;10.33;5.90;;;;;;;;;;5093653;28;20454;-78
2023/01/23 03:36:21;;;;;;;6.30;4.27;;;;;;;;;;5093056;28;20446;-78
2023/01/23 03:41:33;;;;;;;7.00;4.67;;;;;;;;;;5092747;28;20459;-79
2023/01/23 03:44:00;;;;;;;4.83;4.03;;;;;;;;;;5092962;28;20468;-79
2023/01/23 03:46:27;;;;;;;8.13;4.13;;;;;;;;;;5092254;28;20922;-78
2023/01/23 03:48:56;;;;;;;6.67;4.63;;;;;;;;;;5092991;28;20445;-78
2023/01/23 03:51:23;;;;;;;6.80;4.33;;;;;;;;;;5084614;28;20454;-79
2023/01/23 03:53:50;;;;;;;6.43;4.23;;;;;;;;;;5092802;28;20450;-78
2023/01/23 03:56:17;;;;;;;10.70;6.10;;;;;;;;;;5085228;28;20877;-71
2023/01/23 03:58:45;;;;;;;6.67;3.23;;;;;;;;;;5093471;28;20448;-78
2023/01/23 04:01:13;;;;;;;9.27;5.30;;;;;;;;;;5092606;28;20448;-79
2023/01/23 04:03:40;;;;;;;7.90;4.07;;;;;;;;;;5092346;28;20940;-78
2023/01/23 04:06:09;;;;;;;8.60;5.40;;;;;;;;;;5093115;28;20505;-78
2023/01/23 04:08:36;;;;;;;7.80;4.53;;;;;;;;;;5092336;28;20449;-78
2023/01/23 04:11:04;;;;;;;8.80;5.40;;;;;;;;;;5093183;28;20444;-78
2023/01/23 04:13:31;;;;;;;8.00;4.07;;;;;;;;;;5085227;28;20443;-79
2023/01/23 04:15:58;;;;;;;7.47;5.07;;;;;;;;;;5092823;28;20456;-78
2023/01/23 04:18:25;;;;;;;4.40;3.83;;;;;;;;;;5091866;28;20443;-78
2023/01/23 04:20:52;;;;;;;8.37;4.60;;;;;;;;;;5092729;28;20438;-78
2023/01/23 04:23:21;;;;;;;8.20;4.90;;;;;;;;;;5092459;28;20451;-78
2023/01/23 04:25:48;;;;;;;9.60;4.80;;;;;;;;;;5092826;28;20483;-76
2023/01/23 04:28:15;;;;;;;8.13;5.27;;;;;;;;;;5092704;28;20436;-79
2023/01/23 04:30:42;;;;;;;5.10;4.63;;;;;;;;;;5093163;28;20441;-78
2023/01/23 04:33:09;;;;;;;7.57;4.37;;;;;;;;;;5092473;28;20441;-78
2023/01/23 04:35:37;;;;;;;10.50;5.13;;;;;;;;;;5091945;28;20922;-77
2023/01/23 04:38:04;;;;;;;6.67;4.07;;;;;;;;;;5091664;28;20447;-79
2023/01/23 04:40:32;;;;;;;9.60;4.40;;;;;;;;;;5091899;28;20444;-79
2023/01/23 04:42:59;;;;;;;8.73;4.47;;;;;;;;;;5092892;28;20454;-78
2023/01/23 04:45:27;;;;;;;8.13;5.93;;;;;;;;;;5092112;28;20489;-77
2023/01/23 04:47:54;;;;;;;7.63;4.47;;;;;;;;;;5091642;28;20444;-77
2023/01/23 04:50:21;;;;;;;6.53;3.60;;;;;;;;;;5091909;28;20448;-78
2023/01/23 04:52:48;;;;;;;10.20;4.37;;;;;;;;;;5092572;28;20441;-74
2023/01/23 04:55:15;;;;;;;7.17;4.00;;;;;;;;;;5092743;28;20445;-78
2023/01/23 04:57:43;;;;;;;6.70;4.47;;;;;;;;;;5091415;28;20449;-78
2023/01/23 05:00:12;;;;;;;6.03;4.17;;;;;;;;;;5092044;28;20440;-78
2023/01/23 05:02:39;;;;;;;11.20;4.60;;;;;;;;;;5087465;28;20468;-78
2023/01/23 05:05:07;;;;;;;5.97;4.00;;;;;;;;;;5091770;28;20540;-78
2023/01/23 05:07:34;;;;;;;5.87;4.23;;;;;;;;;;5091123;28;20451;-78
2023/01/23 05:10:01;;;;;;;6.30;3.23;;;;;;;;;;5092250;28;20453;-78
2023/01/23 05:12:28;;;;;;;7.37;5.63;;;;;;;;;;5091094;28;20462;-78
2023/01/23 05:14:57;;;;;;;6.67;3.40;;;;;;;;;;5091770;28;20448;-78
2023/01/23 05:17:24;;;;;;;7.23;4.87;;;;;;;;;;5090647;28;20461;-78
2023/01/23 05:19:51;;;;;;;7.63;4.63;;;;;;;;;;5092095;28;20450;-77
2023/01/23 05:22:18;;;;;;;7.00;4.73;;;;;;;;;;5090378;28;20449;-74
2023/01/23 05:24:45;;;;;;;8.80;5.03;;;;;;;;;;5082335;28;20777;-78
2023/01/23 05:27:12;;;;;;;8.53;5.97;;;;;;;;;;5091572;28;20462;-78
2023/01/23 05:29:40;;;;;;;6.20;4.20;;;;;;;;;;5091195;28;20449;-78
2023/01/23 05:32:08;;;;;;;11.67;4.30;;;;;;;;;;5091662;28;20812;-78
2023/01/23 05:34:35;;;;;;;6.23;4.70;;;;;;;;;;5090915;28;20459;-78
2023/01/23 05:37:02;;;;;;;6.97;4.80;;;;;;;;;;5090720;28;20512;-79
2023/01/23 05:39:32;;;;;;;7.00;4.70;;;;;;;;;;5090919;28;20450;-78
2023/01/23 05:41:59;;;;;;;7.20;5.00;;;;;;;;;;5091457;28;20453;-78
2023/01/23 05:44:27;;;;;;;9.60;5.67;;;;;;;;;;5090406;28;20469;-78
2023/01/23 05:46:54;;;;;;;6.80;4.40;;;;;;;;;;5085138;28;20514;-79
2023/01/23 05:49:23;;;;;;;8.03;4.67;;;;;;;;;;5088199;28;20452;-78
2023/01/23 05:51:50;;;;;;;5.60;3.60;;;;;;;;;;5079700;28;20450;-79
2023/01/23 05:54:17;;;;;;;7.40;4.00;;;;;;;;;;5090892;28;20452;-79
2023/01/23 05:56:44;;;;;;;6.57;4.67;;;;;;;;;;5087163;28;20457;-76
2023/01/23 05:59:11;;;;;;;7.50;5.03;;;;;;;;;;5087965;28;20445;-76
2023/01/23 06:01:38;;;;;;;9.43;4.40;;;;;;;;;;5083216;28;20441;-79
2023/01/23 06:04:05;;;;;;;7.40;4.80;;;;;;;;;;5090844;28;20932;-78
2023/01/23 06:06:34;;;;;;;8.67;5.03;;;;;;;;;;5090261;28;20477;-77
2023/01/23 06:09:01;;;;;;;9.70;3.77;;;;;;;;;;5091787;28;20440;-78
2023/01/23 06:11:28;;;;;;;9.27;6.77;;;;;;;;;;5090417;28;20551;-80
2023/01/23 06:13:55;;;;;;;6.57;4.70;;;;;;;;;;5091528;28;20466;-73
2023/01/23 06:16:22;;;;;;;10.63;6.07;;;;;;;;;;5088743;28;20447;-75
2023/01/23 06:18:49;;;;;;;6.27;5.27;;;;;;;;;;5090826;28;20444;-77
2023/01/23 06:21:17;;;;;;;6.80;5.33;;;;;;;;;;5090969;28;20462;-76
2023/01/23 06:23:45;;;;;;;8.87;4.33;;;;;;;;;;5090542;28;20467;-76
2023/01/23 06:26:12;;;;;;;5.93;4.00;;;;;;;;;;5090181;28;20476;-75
2023/01/23 06:28:40;;;;;;;11.37;4.27;;;;;;;;;;5090794;28;20455;-74
2023/01/23 06:31:09;;;;;;;11.07;5.27;;;;;;;;;;5091233;28;20475;-74
2023/01/23 06:33:36;;;;;;;7.73;4.80;;;;;;;;;;5090427;28;20494;-74
2023/01/23 06:36:05;;;;;;;9.70;4.57;;;;;;;;;;5090763;28;20458;-72
2023/01/23 06:38:32;;;;;;;8.90;5.03;;;;;;;;;;5090410;28;20437;-75
2023/01/23 06:41:00;;;;;;;8.40;4.70;;;;;;;;;;5089306;28;20444;-73
2023/01/23 06:43:28;;;;;;;7.63;3.87;;;;;;;;;;5090595;28;20480;-72
2023/01/23 06:45:55;;;;;;;7.70;5.53;;;;;;;;;;5090596;28;20482;-72
2023/01/23 06:48:22;;;;;;;8.07;5.80;;;;;;;;;;5090415;28;20446;-72
2023/01/23 06:50:49;;;;;;;12.63;5.00;;;;;;;;;;5090752;28;20455;-72
2023/01/23 06:53:17;;;;;;;7.40;4.30;;;;;;;;;;5091101;28;20449;-73
2023/01/23 06:55:45;;;;;;;6.37;4.20;;;;;;;;;;5091361;28;20540;-72
2023/01/23 06:58:13;;;;;;;9.00;4.90;;;;;;;;;;5090934;28;20451;-72
2023/01/23 07:00:43;;;;;;;6.90;3.33;;;;;;;;;;5091004;28;20826;-72
2023/01/23 07:03:11;;;;;;;5.70;4.50;;;;;;;;;;5094708;28;20451;-72
2023/01/23 07:05:39;;;;;;;8.67;5.33;;;;;;;;;;5094267;28;20508;-73
2023/01/23 07:08:07;;;;;;;10.70;5.70;;;;;;;;;;5081638;28;20453;-72
2023/01/23 07:10:36;;;;;;;8.20;4.07;;;;;;;;;;5093665;28;20473;-72
2023/01/23 07:13:03;;;;;;;9.17;5.57;;;;;;;;;;5094778;28;20445;-72
2023/01/23 07:15:32;;;;;;;9.80;5.80;;;;;;;;;;5094075;28;20446;-72
2023/01/23 07:17:59;;;;;;;7.27;4.60;;;;;;;;;;5094582;28;20453;-72
2023/01/23 07:20:26;;;;;;;4.83;3.47;;;;;;;;;;5093518;28;20799;-73
2023/01/23 07:22:54;;;;;;;7.20;4.23;;;;;;;;;;5094455;28;20904;-73
2023/01/23 07:25:21;;;;;;;5.33;3.50;;;;;;;;;;5093811;28;20535;-73
2023/01/23 07:27:48;;;;;;;8.00;4.00;;;;;;;;;;5094454;28;20444;-72
2023/01/23 07:30:16;;;;;;;12.13;4.90;;;;;;;;;;5093990;28;20505;-73
2023/01/23 07:32:44;;;;;;;7.00;4.70;;;;;;;;;;5094475;28;20529;-72
2023/01/23 07:35:11;;;;;;;7.17;3.57;;;;;;;;;;5094300;28;20445;-75
2023/01/23 07:37:38;;;;;;;9.13;4.77;;;;;;;;;;5093845;28;20816;-73
2023/01/23 07:40:06;;;;;;;5.57;4.27;;;;;;;;;;5093668;28;20450;-74
2023/01/23 07:42:33;;;;;;;9.40;4.60;;;;;;;;;;5093796;28;20825;-74
2023/01/23 07:45:00;;;;;;;9.40;5.33;;;;;;;;;;5093925;28;20477;-74
2023/01/23 07:47:27;;;;;;;9.50;4.70;;;;;;;;;;5093412;28;20498;-74
2023/01/23 07:49:56;;;;;;;12.40;5.63;;;;;;;;;;5092998;28;20960;-73
2023/01/23 07:52:23;;;;;;;11.63;6.40;;;;;;;;;;5093530;28;20447;-74
2023/01/23 07:54:50;;;;;;;11.37;5.40;;;;;;;;;;5093660;28;20448;-73
2023/01/23 07:57:17;;;;;;;10.03;6.33;;;;;;;;;;5094139;28;20530;-73
2023/01/23 07:59:44;;;;;;;7.83;4.70;;;;;;;;;;5093519;28;20454;-73
2023/01/23 08:02:11;;;;;;;9.57;6.07;;;;;;;;;;5093837;28;20796;-74
2023/01/23 08:04:39;;;;;;;15.43;9.63;;;;;;;;;;5092957;28;20462;-74
2023/01/23 08:07:07;;;;;;;9.90;5.70;;;;;;;;;;5093788;28;20529;-74
2023/01/23 08:09:34;;;;;;;5.57;3.63;;;;;;;;;;5093217;28;20469;-74
2023/01/23 08:12:02;;;;;;;11.57;5.70;;;;;;;;;;5092006;28;20470;-74
2023/01/23 08:14:29;;;;;;;11.30;5.00;;;;;;;;;;5092741;28;20453;-74
2023/01/23 08:16:56;;;;;;;9.27;5.80;;;;;;;;;;5093596;28;20452;-73
2023/01/23 08:19:24;;;;;;;8.97;5.80;;;;;;;;;;5092764;28;20455;-74
2023/01/23 08:21:51;;;;;;;10.23;5.63;;;;;;;;;;5092831;28;20453;-74
2023/01/23 08:24:20;;;;;;;7.87;4.77;;;;;;;;;;5092812;28;20445;-72
2023/01/23 08:26:47;;;;;;;9.83;5.70;;;;;;;;;;5093102;28;21052;-74
2023/01/23 08:29:14;;;;;;;9.17;4.90;;;;;;;;;;5093500;28;20464;-74
2023/01/23 08:31:41;;;;;;;10.27;5.07;;;;;;;;;;5091918;28;20451;-74
2023/01/23 08:34:08;;;;;;;7.90;4.67;;;;;;;;;;5093080;28;20464;-74
2023/01/23 08:36:35;;;;;;;9.30;4.90;;;;;;;;;;5092331;28;20462;-74
2023/01/23 08:39:03;;;;;;;12.50;6.00;;;;;;;;;;5093196;28;20449;-74
2023/01/23 08:41:31;;;;;;;7.97;5.33;;;;;;;;;;5091638;28;20996;-74
2023/01/23 08:44:00;;;;;;;12.30;5.20;;;;;;;;;;5092912;28;20476;-75
2023/01/23 08:46:27;;;;;;;10.10;5.23;;;;;;;;;;5092335;28;20479;-75
2023/01/23 08:48:54;;;;;;;8.20;4.37;;;;;;;;;;5092794;28;20839;-72
2023/01/23 08:51:22;;;;;;;5.47;4.20;;;;;;;;;;5091811;28;20458;-73
2023/01/23 08:53:51;;;;;;;9.97;5.83;;;;;;;;;;5092586;28;20448;-72
2023/01/23 08:56:19;;;;;;;7.80;5.77;;;;;;;;;;5092181;28;20814;-73
2023/01/23 08:58:48;;;;;;;7.23;4.77;;;;;;;;;;5092532;28;20817;-72
2023/01/23 09:01:16;;;;;;;11.60;6.13;;;;;;;;;;5092174;28;20449;-75
2023/01/23 09:03:44;;;;;;;8.10;4.40;;;;;;;;;;5092392;28;20449;-74
2023/01/23 09:06:11;;;;;;;11.27;5.63;;;;;;;;;;5092391;28;20483;-72
2023/01/23 09:08:38;;;;;;;11.07;5.53;;;;;;;;;;5092006;28;20457;-74
2023/01/23 09:11:07;;;;;;;16.80;6.27;;;;;;;;;;5091756;28;20470;-74
2023/01/23 09:13:34;;;;;;;5.80;4.20;;;;;;;;;;5091967;28;20448;-74
2023/01/23 09:16:03;;;;;;;10.30;6.67;;;;;;;;;;5092307;28;20805;-72
2023/01/23 09:18:30;;;;;;;10.47;5.40;;;;;;;;;;5091709;28;20455;-72
2023/01/23 09:20:57;;;;;;;11.60;6.50;;;;;;;;;;5091840;28;20439;-72
2023/01/23 09:23:24;;;;;;;6.27;4.40;;;;;;;;;;5091371;28;20458;-72
2023/01/23 09:25:51;;;;;;;7.27;5.00;;;;;;;;;;5092123;28;20455;-72
2023/01/23 09:28:18;;;;;;;8.57;4.40;;;;;;;;;;5091285;28;20458;-72
2023/01/23 09:30:45;;;;;;;7.13;4.10;;;;;;;;;;5091779;28;20448;-73
2023/01/23 09:33:15;;;;;;;11.70;5.13;;;;;;;;;;5091932;28;20455;-72
2023/01/23 09:35:44;;;;;;;5.10;3.70;;;;;;;;;;5079029;28;20510;-73
2023/01/23 09:38:11;;;;;;;5.90;3.97;;;;;;;;;;5091937;28;20479;-73
2023/01/23 09:40:45;;;;;;;7.87;3.60;;;;;;;;;;5090728;28;20464;-73
2023/01/23 09:43:16;;;;;;;3.87;3.30;;;;;;;;;;5092173;28;20456;-73
2023/01/23 09:45:45;;;;;;;9.27;4.70;;;;;;;;;;5091582;28;20474;-73
2023/01/23 09:48:20;;;;;;;10.93;5.20;;;;;;;;;;5092158;28;20788;-73
2023/01/23 09:50:54;;;;;;;5.10;3.43;;;;;;;;;;5091594;28;20497;-72
2023/01/23 09:53:23;;;;;;;8.27;4.20;;;;;;;;;;5091210;28;20441;-73
2023/01/23 09:55:51;;;;;;;10.00;4.83;;;;;;;;;;5091840;28;20804;-72
2023/01/23 09:58:21;;;;;;;7.67;4.03;;;;;;;;;;5091108;28;20803;-74
2023/01/23 10:00:48;;;;;;;7.07;3.60;;;;;;;;;;5091052;28;20961;-71
2023/01/23 10:03:17;;;;;;;9.13;4.37;;;;;;;;;;5091628;28;20448;-73
2023/01/23 10:05:47;;;;;;;6.60;4.90;;;;;;;;;;5091394;28;20445;-75
2023/01/23 10:08:19;;;;;;;7.37;4.77;;;;;;;;;;5091354;28;21038;-72
2023/01/23 10:10:52;;;;;;;11.67;4.90;;;;;;;;;;5091354;28;20461;-72
2023/01/23 10:13:23;;;;;;;6.33;3.87;;;;;;;;;;5090687;28;20460;-72
2023/01/23 10:16:08;;;;;;;8.43;4.10;;;;;;;;;;5091157;28;20448;-72
2023/01/23 10:18:41;;;;;;;5.53;3.80;;;;;;;;;;5090266;28;20459;-73
2023/01/23 10:21:12;;;;;;;7.77;3.63;;;;;;;;;;5090953;28;20448;-73
2023/01/23 10:23:46;;;;;;;8.17;4.20;;;;;;;;;;5090789;28;20443;-72
2023/01/23 10:26:16;;;;;;;7.07;3.93;;;;;;;;;;5091558;28;20761;-73
2023/01/23 10:28:44;;;;;;;5.13;4.10;;;;;;;;;;5091332;28;20482;-73
2023/01/23 10:31:12;;;;;;;8.63;4.80;;;;;;;;;;5090947;28;20569;-73
2023/01/23 10:33:46;;;;;;;7.50;5.03;;;;;;;;;;5090593;28;20471;-71
2023/01/23 10:36:18;;;;;;;6.73;3.80;;;;;;;;;;5093256;28;20947;-73
2023/01/23 10:38:49;;;;;;;9.50;5.37;;;;;;;;;;5095564;28;20834;-72
2023/01/23 10:41:18;;;;;;;9.50;4.10;;;;;;;;;;5095129;28;20448;-72
2023/01/23 10:43:47;;;;;;;8.90;4.37;;;;;;;;;;5095019;28;20539;-72
2023/01/23 10:46:15;;;;;;;6.37;4.17;;;;;;;;;;5095259;28;20447;-72
2023/01/23 10:48:45;;;;;;;4.10;3.53;;;;;;;;;;5094761;28;20445;-72
2023/01/23 10:51:24;;;;;;;8.43;4.00;;;;;;;;;;5094728;28;20436;-72
2023/01/23 10:54:01;;;;;;;7.10;4.57;;;;;;;;;;5095424;28;20465;-73
2023/01/23 10:56:30;;;;;;;9.13;4.30;;;;;;;;;;5094595;28;20444;-72
2023/01/23 10:58:58;;;;;;;12.37;4.73;;;;;;;;;;5094815;28;20950;-72
2023/01/23 11:01:27;;;;;;;8.17;4.10;;;;;;;;;;5093962;28;20448;-72
2023/01/23 11:03:55;;;;;;;7.07;4.20;;;;;;;;;;5094994;28;20463;-72
2023/01/23 11:06:24;;;;;;;6.23;4.80;;;;;;;;;;5094284;28;20831;-72
2023/01/23 11:08:53;;;;;;;7.60;4.00;;;;;;;;;;5094664;28;20929;-73
2023/01/23 11:11:22;;;;;;;8.00;3.93;;;;;;;;;;5093611;28;20522;-72
2023/01/23 11:13:51;;;;;;;8.63;4.43;;;;;;;;;;5094755;28;20808;-73
2023/01/23 11:16:19;;;;;;;12.07;3.00;;;;;;;;;;5080942;28;20449;-69
2023/01/23 11:18:50;;;;;;;6.90;4.73;;;;;;;;;;5094427;28;20456;-73
2023/01/23 11:21:24;;;;;;;6.50;4.83;;;;;;;;;;5094259;28;20444;-72
2023/01/23 11:24:07;;;;;;;11.00;5.70;;;;;;;;;;5094506;28;20574;-73
2023/01/23 11:26:36;;;;;;;10.50;5.90;;;;;;;;;;5093957;28;20440;-72
2023/01/23 11:29:03;;;;;;;8.07;4.27;;;;;;;;;;5094336;28;20467;-72
2023/01/23 11:31:31;;;;;;;9.47;5.00;;;;;;;;;;5093496;28;20444;-72
2023/01/23 11:34:00;;;;;;;9.10;4.87;;;;;;;;;;5093785;28;20948;-72
2023/01/23 11:36:36;;;;;;;6.60;3.43;;;;;;;;;;5093697;28;20476;-72
2023/01/23 11:39:06;;;;;;;7.00;4.30;;;;;;;;;;5081443;28;20493;-73
2023/01/23 11:41:35;;;;;;;8.73;4.90;;;;;;;;;;5093227;28;20517;-73
2023/01/23 11:44:05;;;;;;;5.70;3.90;;;;;;;;;;5093676;28;20484;-75
2023/01/23 11:46:40;;;;;;;6.37;4.60;;;;;;;;;;5093240;28;20447;-72
2023/01/23 11:49:17;;;;;;;10.30;5.37;;;;;;;;;;5093896;28;20440;-72
2023/01/23 11:51:48;;;;;;;7.93;5.77;;;;;;;;;;5094133;28;20455;-72
2023/01/23 11:54:27;;;;;;;12.60;4.87;;;;;;;;;;5094119;28;20455;-72
2023/01/23 11:57:02;;;;;;;7.67;5.60;;;;;;;;;;5093865;28;20456;-72
2023/01/23 11:59:48;;;;;;;7.90;5.13;;;;;;;;;;5093083;28;20433;-72
2023/01/23 12:02:33;;;;;;;10.10;5.27;;;;;;;;;;5093725;28;20452;-74
2023/01/23 12:05:05;;;;;;;7.87;3.73;;;;;;;;;;5080565;28;20806;-73
2023/01/23 12:07:39;;;;;;;9.83;5.30;;;;;;;;;;5092808;28;20475;-72
2023/01/23 12:10:10;;;;;;;5.73;3.87;;;;;;;;;;5093025;28;20449;-72
2023/01/23 12:12:47;;;;;;;10.37;4.40;;;;;;;;;;5093232;28;20696;-73
2023/01/23 12:15:19;;;;;;;7.50;6.70;;;;;;;;;;5094073;28;20466;-73
2023/01/23 12:17:49;;;;;;;6.50;3.40;;;;;;;;;;5093594;28;20455;-73
2023/01/23 12:20:26;;;;;;;10.37;4.70;;;;;;;;;;5093025;28;20827;-72
2023/01/23 12:23:01;;;;;;;13.33;5.20;;;;;;;;;;5093732;28;20445;-73
2023/01/23 12:25:32;;;;;;;5.80;4.53;;;;;;;;;;5092474;28;20916;-73
2023/01/23 12:28:02;;;;;;;8.50;6.37;;;;;;;;;;5093130;28;20999;-73
2023/01/23 12:30:33;;;;;;;9.73;5.60;;;;;;;;;;5092407;28;20796;-73
2023/01/23 12:33:11;;;;;;;8.83;4.50;;;;;;;;;;5093293;28;20455;-73
2023/01/23 12:35:44;;;;;;;9.77;5.90;;;;;;;;;;5092535;28;20444;-73
2023/01/23 12:38:20;;;;;;;10.53;6.47;;;;;;;;;;5093153;28;20791;-73
2023/01/23 12:40:49;;;;;;;6.73;3.83;;;;;;;;;;5092568;28;20448;-72
2023/01/23 12:43:18;;;;;;;8.20;4.80;;;;;;;;;;5092651;28;20471;-74
2023/01/23 12:45:50;;;;;;;9.40;5.40;;;;;;;;;;5093243;28;20464;-74
2023/01/23 12:48:20;;;;;;;6.73;3.90;;;;;;;;;;5093073;28;20477;-73
2023/01/23 12:50:49;;;;;;;6.80;4.27;;;;;;;;;;5092523;28;20445;-73
2023/01/23 12:53:18;;;;;;;8.63;5.40;;;;;;;;;;5092882;28;20460;-72
2023/01/23 12:55:55;;;;;;;8.60;5.90;;;;;;;;;;5093119;28;20456;-73
2023/01/23 12:58:23;;;;;;;6.13;4.10;;;;;;;;;;5078405;28;20522;-73
2023/01/23 13:00:55;;;;;;;9.17;4.33;;;;;;;;;;5092013;28;20559;-72
2023/01/23 13:03:28;;;;;;;11.27;6.27;;;;;;;;;;5092253;28;20448;-73
2023/01/23 13:06:04;;;;;;;12.03;4.97;;;;;;;;;;5092223;28;20916;-73
2023/01/23 13:08:35;;;;;;;14.40;5.70;;;;;;;;;;5091776;28;20468;-73
2023/01/23 13:13:49;;;;;;;7.90;4.60;;;;;;;;;;5092338;28;20420;-73
2023/01/23 13:16:18;;;;;;;8.00;4.40;;;;;;;;;;5092434;28;20445;-74
2023/01/23 13:27:34;;;;;;;10.17;5.30;;;;;;;;;;5092040;28;20478;-72
2023/01/23 13:30:02;;;;;;;9.17;5.20;;;;;;;;;;5091701;28;20441;-72
2023/01/23 13:32:29;;;;;;;8.90;4.50;;;;;;;;;;5091159;28;20447;-73
2023/01/23 13:34:56;;;;;;;7.43;4.37;;;;;;;;;;5091925;28;20448;-72
2023/01/23 13:37:49;;;;;;;7.60;4.80;;;;;;;;;;5091216;28;20457;-72
2023/01/23 13:40:20;;;;;;;10.70;4.83;;;;;;;;;;5091356;28;20445;-72
2023/01/23 13:42:47;;;;;;;5.47;4.20;;;;;;;;;;5092265;28;20470;-74
2023/01/23 13:45:38;;;;;;;10.73;5.27;;;;;;;;;;5091576;28;20495;-72
2023/01/23 13:51:16;;;;;;;6.83;3.60;;;;;;;;;;5091064;28;20477;-73
2023/01/23 13:59:28;;;;;;;9.20;4.23;;;;;;;;;;5091045;28;20441;-72
2023/01/23 14:07:46;;;;;;;9.07;4.87;;;;;;;;;;5090800;28;20877;-72
2023/01/23 14:10:16;;;;;;;9.03;4.37;;;;;;;;;;5091051;28;20484;-73
2023/01/23 14:12:45;;;;;;;9.47;5.03;;;;;;;;;;5091577;28;20449;-73
2023/01/23 14:18:04;;;;;;;6.60;5.33;;;;;;;;;;5079537;28;20806;-73
2023/01/23 14:20:36;;;;;;;6.40;3.17;;;;;;;;;;5090254;28;20451;-74
2023/01/23 14:23:05;;;;;;;7.00;4.13;;;;;;;;;;5091189;28;20522;-74
2023/01/23 14:25:33;;;;;;;7.97;4.40;;;;;;;;;;5090768;28;20459;-73
2023/01/23 14:28:05;;;;;;;10.57;5.80;;;;;;;;;;5090943;28;20481;-73
2023/01/23 14:30:32;;;;;;;6.40;4.80;;;;;;;;;;5090210;28;20455;-73
2023/01/23 14:32:59;;;;;;;5.33;4.47;;;;;;;;;;5091417;28;20445;-73
2023/01/23 14:35:28;;;;;;;11.60;4.90;;;;;;;;;;5090507;28;20466;-72
2023/01/23 14:37:56;;;;;;;7.83;5.57;;;;;;;;;;5091325;28;20461;-72
2023/01/23 14:40:23;;;;;;;8.17;4.27;;;;;;;;;;5090263;28;20448;-73
2023/01/23 14:42:59;;;;;;;6.13;5.03;;;;;;;;;;5091492;28;20454;-73
2023/01/23 14:45:29;;;;;;;8.90;5.60;;;;;;;;;;5077373;28;20477;-72
2023/01/23 14:47:56;;;;;;;14.77;6.73;;;;;;;;;;5091035;28;20497;-73
2023/01/23 14:50:24;;;;;;;8.83;5.40;;;;;;;;;;5090071;28;20455;-73
2023/01/23 14:52:57;;;;;;;7.10;3.77;;;;;;;;;;5091002;28;20449;-73
2023/01/23 14:55:26;;;;;;;6.60;3.80;;;;;;;;;;5090378;28;20495;-73
2023/01/23 14:57:53;;;;;;;8.27;4.00;;;;;;;;;;5090707;28;20460;-73
2023/01/23 15:00:22;;;;;;;5.97;4.43;;;;;;;;;;5090215;28;20451;-73
2023/01/23 15:02:53;;;;;;;7.37;4.50;;;;;;;;;;5090534;28;20448;-73
2023/01/23 15:05:22;;;;;;;4.87;4.23;;;;;;;;;;5090099;28;20489;-73
2023/01/23 15:07:53;;;;;;;4.73;3.70;;;;;;;;;;5090813;28;20580;-73
2023/01/23 15:10:21;;;;;;;6.67;3.83;;;;;;;;;;5089983;28;20528;-73
2023/01/23 15:12:49;;;;;;;9.30;4.07;;;;;;;;;;5090651;28;20453;-71
2023/01/23 15:15:18;;;;;;;7.60;4.80;;;;;;;;;;5090776;28;20461;-73
2023/01/23 15:17:46;;;;;;;6.80;3.87;;;;;;;;;;5090706;28;20460;-73
2023/01/23 15:20:31;;;;;;;8.40;5.47;;;;;;;;;;5090251;28;21031;-73
2023/01/23 15:22:58;;;;;;;18.03;5.60;;;;;;;;;;5082670;28;20523;-73
2023/01/23 15:25:29;;;;;;;14.43;5.30;;;;;;;;;;5094070;28;20445;-73
2023/01/23 15:27:56;;;;;;;9.10;5.37;;;;;;;;;;5094406;28;20576;-72